Currently 59°F in Simi Valley, California, USA
59°F
66°F / 58°F
calm
0.00"
Saturday, July 2, 2022 7:00 AM PDT

Simi Valley, California Weather Summary
Last 36 Hours

Temperature Winds Hourly Humidity Dewpoint
Time Report Norm Report Norm Max Gusts Precip. Rpt. Norm Rpt. Norm Pressure
1Sat 07:00 AM  59.4°F  63°F  calm  1 mph  6 mph  0.00"  58%  75%  44°F  54°F  29.88"
3Sat 06:41 AM  58.3°F  62°F  3 mph NE  1 mph  6 mph  ----  58%  75%  43°F  53°F  29.88"
Sat 06:00 AM  58.9°F  61°F  calm  1 mph  6 mph  0.00"  61%  74%  45°F  53°F  29.88"
Sat 05:00 AM  59.4°F  62°F  3 mph N  1 mph  4 mph  0.00"  60%  73%  45°F  53°F  29.86"
Sat 04:00 AM  60.0°F  63°F  calm  1 mph  5 mph  0.00"  64%  71%  47°F  53°F  29.86"
Sat 03:00 AM  62.5°F  63°F  calm  2 mph  4 mph  0.00"  70%  70%  52°F  53°F  29.86"
Sat 02:00 AM  63.3°F  64°F  2 mph NW  1 mph  5 mph  0.00"  59%  69%  48°F  54°F  29.86"
Sat 01:00 AM  64.7°F  65°F  calm  1 mph  4 mph  0.00"  60%  68%  50°F  54°F  29.88"
2Sat 12:01 AM  65.7°F  66°F  2 mph SW  1 mph  2 mph  ----  62%  67%  52°F  55°F  29.88"
Sat 12:00 AM  65.7°F  66°F  calm  1 mph  4 mph  0.00"  62%  67%  52°F  55°F  29.88"
Fri 11:00 PM  67.0°F  68°F  3 mph NE  1 mph  4 mph  0.00"  63%  66%  54°F  56°F  29.88"
Fri 10:00 PM  68.5°F  70°F  calm  1 mph  7 mph  0.00"  65%  64%  56°F  57°F  29.88"
Fri 09:00 PM  69.7°F  72°F  3 mph NW  2 mph  9 mph  0.00"  64%  61%  57°F  57°F  29.86"
Fri 08:00 PM  74.9°F  75°F  5 mph NW  4 mph  11 mph  0.00"  51%  55%  55°F  58°F  29.84"
Fri 07:00 PM  79.7°F  79°F  7 mph NW  5 mph  14 mph  0.00"  42%  49%  54°F  58°F  29.85"
Fri 06:00 PM  80.4°F  81°F  4 mph NW  6 mph  13 mph  0.00"  42%  45%  55°F  58°F  29.85"
Fri 05:00 PM  80.6°F  83°F  5 mph W  6 mph  16 mph  0.00"  44%  44%  56°F  58°F  29.87"
Fri 04:00 PM  81.6°F  84°F  8 mph NW  7 mph  16 mph  0.00"  45%  43%  58°F  58°F  29.88"
Fri 03:00 PM  82.9°F  84°F  10 mph W  8 mph  17 mph  0.00"  43%  42%  57°F  58°F  29.88"
Fri 02:00 PM  82.7°F  85°F  8 mph NW  7 mph  16 mph  0.00"  45%  42%  59°F  59°F  29.89"
Fri 01:00 PM  82.6°F  85°F  8 mph NW  7 mph  14 mph  0.00"  43%  43%  57°F  59°F  29.90"
Fri 12:00 PM  83.7°F  83°F  6 mph W  6 mph  10 mph  0.00"  40%  45%  56°F  59°F  29.91"
Fri 11:00 AM  80.6°F  80°F  2 mph NW  4 mph  8 mph  0.00"  41%  49%  54°F  58°F  29.92"
Fri 10:00 AM  75.9°F  76°F  4 mph NW  3 mph  7 mph  0.00"  51%  56%  56°F  59°F  29.93"
Fri 09:00 AM  71.5°F  71°F  4 mph NW  2 mph  7 mph  0.00"  58%  65%  55°F  58°F  29.94"
Fri 08:00 AM  68.8°F  67°F  calm  1 mph  3 mph  0.00"  60%  71%  54°F  57°F  29.93"
Fri 07:00 AM  61.6°F  62°F  2 mph NE  1 mph  6 mph  0.00"  64%  75%  49°F  54°F  29.92"
Fri 06:00 AM  60.3°F  61°F  calm  1 mph  6 mph  0.00"  63%  74%  47°F  53°F  29.91"
Fri 05:00 AM  61.5°F  62°F  calm  1 mph  4 mph  0.00"  61%  73%  47°F  53°F  29.91"
Fri 04:00 AM  64.1°F  62°F  calm  1 mph  6 mph  0.00"  60%  71%  49°F  53°F  29.91"
Fri 03:00 AM  64.0°F  63°F  3 mph NE  2 mph  6 mph  0.00"  55%  70%  47°F  53°F  29.91"
Fri 02:00 AM  64.4°F  64°F  4 mph E  1 mph  6 mph  0.00"  54%  69%  47°F  53°F  29.91"
Fri 01:00 AM  65.4°F  65°F  2 mph E  1 mph  5 mph  0.00"  54%  68%  48°F  54°F  29.91"
Fri 12:00 AM  66.9°F  66°F  3 mph NE  1 mph  6 mph  0.00"  55%  67%  49°F  54°F  29.91"
Thu 11:00 PM  68.5°F  68°F  1 mph NE  1 mph  5 mph  0.00"  55%  66%  51°F  55°F  29.91"
Thu 10:00 PM  71.1°F  69°F  2 mph NE  1 mph  4 mph  0.00"  55%  65%  53°F  56°F  29.91"
Thu 09:00 PM  72.3°F  72°F  2 mph S  2 mph  7 mph  0.00"  56%  62%  55°F  57°F  29.89"
Thu 08:00 PM  75.0°F  75°F  3 mph NW  4 mph  9 mph  0.00"  52%  56%  56°F  57°F  29.89"

  1. Current weather data. No green row appears if the current weather data is also the high or low for the current day.
  2. High temperature for the current day.
  3. Low temperature for the current day.

The Simi Valley, California weather pages are a service of WeatherCurrents.
Copyright ©2022  WeatherCurrents. All rights reserved. - Submit questions and comments - Privacy Policy

This page automatically refreshes every 10 minutes.